createdAt,value
2019-04-21T00:01:22.466Z,53.61
2019-04-21T00:03:53.906Z,54.01
2019-04-21T00:06:36.927Z,54.19
2019-04-21T00:09:11.544Z,54.29
2019-04-21T00:11:37.769Z,54.40
2019-04-21T00:13:52.736Z,54.57
2019-04-21T00:16:11.977Z,54.52
2019-04-21T00:21:34.429Z,54.59
2019-04-21T00:24:24.282Z,55.46
2019-04-21T00:26:57.349Z,55.08
2019-04-21T00:29:33.051Z,55.13
2019-04-21T00:31:52.859Z,55.18
2019-04-21T00:34:06.731Z,55.29
2019-04-21T00:36:45.413Z,55.49
2019-04-21T00:39:34.457Z,55.50
2019-04-21T00:41:48.559Z,55.72
2019-04-21T00:44:12.589Z,55.96
2019-04-21T00:46:40.299Z,56.18
2019-04-21T00:49:10.564Z,56.17
2019-04-21T00:51:54.133Z,56.28
2019-04-21T00:57:12.638Z,56.45
2019-04-21T00:59:33.526Z,56.35
2019-04-21T01:01:59.963Z,56.70
2019-04-21T01:04:33.880Z,56.67
2019-04-21T01:06:54.455Z,56.66
2019-04-21T01:09:26.639Z,56.77
2019-04-21T01:11:55.300Z,56.83
2019-04-21T01:14:32.874Z,57.07
2019-04-21T01:16:51.688Z,57.04
2019-04-21T01:19:16.728Z,57.12
2019-04-21T01:21:26.533Z,57.26
2019-04-21T01:23:55.683Z,57.33
2019-04-21T01:26:32.773Z,57.50
2019-04-21T01:29:10.436Z,57.61
2019-04-21T01:31:34.864Z,57.68
2019-04-21T01:34:03.068Z,57.66
2019-04-21T01:36:33.325Z,57.75
2019-04-21T01:39:07.797Z,58.02
2019-04-21T01:41:36.589Z,58.09
2019-04-21T01:43:59.293Z,58.16
2019-04-21T01:46:22.661Z,58.15
2019-04-21T01:48:51.788Z,58.39
2019-04-21T01:51:18.952Z,58.60
2019-04-21T01:53:57.989Z,58.49
2019-04-21T01:56:30.505Z,58.67
2019-04-21T01:58:49.353Z,58.73
2019-04-21T02:01:28.377Z,58.85
2019-04-21T02:03:56.828Z,58.92
2019-04-21T02:06:27.707Z,59.10
2019-04-21T02:08:49.361Z,59.23
2019-04-21T02:11:24.540Z,59.29
2019-04-21T02:13:58.883Z,59.26
2019-04-21T02:16:16.912Z,59.20
2019-04-21T02:18:45.359Z,59.38
2019-04-21T02:21:00.503Z,59.60
2019-04-21T02:23:46.379Z,59.50
2019-04-21T02:26:12.727Z,59.75
2019-04-21T02:28:42.794Z,59.87
2019-04-21T02:33:50.693Z,60.12
2019-04-21T02:36:27.233Z,60.19
2019-04-21T02:41:25.957Z,60.19
2019-04-21T02:43:41.315Z,60.05
2019-04-21T02:46:10.500Z,60.19
2019-04-21T02:50:49.728Z,60.33
2019-04-21T02:53:47.854Z,60.71
2019-04-21T02:55:51.237Z,60.91
2019-04-21T03:01:07.024Z,61.15
2019-04-21T03:03:31.622Z,61.27
2019-04-21T03:08:59.008Z,61.40
2019-04-21T03:11:25.193Z,61.41
2019-04-21T03:16:25.959Z,61.66
2019-04-21T03:23:52.559Z,61.78
2019-04-21T03:38:37.766Z,62.41
2019-04-21T03:41:01.395Z,62.44
2019-04-21T03:45:51.408Z,62.90
2019-04-21T03:51:07.259Z,62.41
2019-04-21T03:53:20.838Z,62.13
2019-04-21T03:58:41.455Z,62.67
2019-04-21T04:08:43.731Z,63.42
2019-04-21T04:11:15.163Z,63.47
2019-04-21T04:13:37.290Z,63.45
2019-04-21T04:16:02.093Z,63.58
2019-04-21T04:18:33.428Z,63.63
2019-04-21T04:20:58.819Z,63.62
2019-04-21T04:23:43.808Z,63.71
2019-04-21T04:28:40.620Z,63.94
2019-04-21T04:30:48.797Z,63.94
2019-04-21T04:33:21.270Z,63.96
2019-04-21T04:35:56.064Z,64.34
2019-04-21T04:38:12.844Z,63.99
2019-04-21T04:43:28.567Z,64.59
2019-04-21T04:45:46.384Z,64.59
2019-04-21T04:48:11.834Z,64.49
2019-04-21T04:50:49.316Z,64.66
2019-04-21T04:58:07.870Z,65.52
2019-04-21T05:03:03.391Z,65.45
2019-04-21T05:06:24.213Z,64.92
2019-04-21T05:08:52.962Z,64.43
2019-04-21T05:13:34.797Z,64.57
2019-04-21T05:16:03.528Z,64.78
2019-04-21T05:18:35.072Z,64.78
2019-04-21T05:21:04.317Z,65.31
2019-04-21T05:23:18.153Z,65.26
2019-04-21T05:25:43.220Z,65.79
2019-04-21T05:28:08.949Z,65.43
2019-04-21T05:39:10.343Z,66.23
2019-04-21T05:41:31.294Z,65.83
2019-04-21T05:44:13.349Z,65.46
2019-04-21T05:46:42.776Z,65.51
2019-04-21T05:49:17.547Z,65.07
2019-04-21T05:51:59.728Z,64.60
2019-04-21T05:54:39.503Z,64.46
2019-04-21T05:57:02.389Z,63.79
2019-04-21T05:59:32.643Z,63.41
2019-04-21T06:02:06.100Z,63.60
2019-04-21T06:04:51.786Z,63.42
2019-04-21T06:07:04.768Z,63.14
2019-04-21T06:09:57.207Z,62.92
2019-04-21T06:12:21.091Z,62.66
2019-04-21T06:17:25.366Z,62.02
2019-04-21T06:19:52.657Z,61.78
2019-04-21T06:22:10.342Z,61.56
2019-04-21T06:24:58.418Z,61.46
2019-04-21T06:27:19.349Z,61.00
2019-04-21T06:29:36.221Z,60.34
2019-04-21T06:32:20.344Z,59.75
2019-04-21T06:34:47.590Z,59.56
2019-04-21T06:37:18.878Z,59.05
2019-04-21T06:39:42.671Z,58.44
2019-04-21T06:42:07.325Z,57.54
2019-04-21T06:44:33.713Z,57.33
2019-04-21T06:47:04.535Z,57.43
2019-04-21T06:49:25.046Z,56.92
2019-04-21T06:51:57.622Z,56.96
2019-04-21T06:54:22.034Z,56.32
2019-04-21T06:56:51.741Z,55.66
2019-04-21T06:59:19.227Z,55.66
2019-04-21T07:01:54.936Z,55.52
2019-04-21T07:04:29.599Z,54.78
2019-04-21T07:06:48.163Z,54.21
2019-04-21T07:11:39.377Z,53.05
2019-04-21T07:14:29.440Z,52.77
2019-04-21T07:16:42.886Z,53.07
2019-04-21T07:19:12.725Z,52.41
2019-04-21T07:21:33.839Z,52.18
2019-04-21T07:24:05.800Z,51.83
2019-04-21T07:26:32.697Z,51.72
2019-04-21T07:29:01.844Z,51.36
2019-04-21T07:31:31.913Z,51.09
2019-04-21T07:34:00.210Z,51.11
2019-04-21T07:36:30.918Z,50.94
2019-04-21T07:38:49.825Z,51.67
2019-04-21T07:41:11.207Z,52.00
2019-04-21T07:43:41.330Z,52.00
2019-04-21T07:46:10.120Z,51.66
2019-04-21T07:48:49.251Z,50.90
2019-04-21T07:51:37.713Z,50.88
2019-04-21T07:54:13.373Z,50.01
2019-04-21T07:56:22.686Z,47.85
2019-04-21T07:59:03.745Z,47.16
2019-04-21T08:01:32.183Z,45.69
2019-04-21T08:04:03.719Z,44.93
2019-04-21T08:06:40.316Z,44.81
2019-04-21T08:08:52.891Z,44.58
2019-04-21T08:11:24.356Z,44.46
2019-04-21T08:13:55.039Z,43.96
2019-04-21T08:18:47.426Z,43.70
2019-04-21T08:21:11.084Z,43.37
2019-04-21T08:23:41.475Z,42.96
2019-04-21T08:26:08.002Z,43.02
2019-04-21T08:28:39.237Z,42.58
2019-04-21T08:31:08.213Z,42.69
2019-04-21T08:33:38.722Z,42.32
2019-04-21T08:38:35.966Z,42.58
2019-04-21T08:41:05.121Z,42.67
2019-04-21T08:43:37.256Z,42.44
2019-04-21T08:45:57.285Z,42.58
2019-04-21T08:48:23.493Z,42.86
2019-04-21T08:51:02.090Z,42.80
2019-04-21T08:53:20.848Z,42.08
2019-04-21T08:55:55.392Z,42.30
2019-04-21T08:58:31.012Z,42.08
2019-04-21T09:01:18.084Z,42.28
2019-04-21T09:03:59.769Z,42.22
2019-04-21T09:06:31.715Z,41.26
2019-04-21T09:09:01.678Z,42.13
2019-04-21T09:11:17.693Z,42.26
2019-04-21T09:13:50.678Z,41.94
2019-04-21T09:16:17.146Z,41.85
2019-04-21T09:18:41.919Z,41.63
2019-04-21T09:21:21.868Z,41.67
2019-04-21T09:23:40.555Z,42.09
2019-04-21T09:26:05.045Z,41.62
2019-04-21T09:28:37.008Z,41.84
2019-04-21T09:30:53.502Z,41.86
2019-04-21T09:33:16.056Z,41.49
2019-04-21T09:35:49.166Z,42.46
2019-04-21T09:41:17.533Z,42.55
2019-04-21T09:43:46.545Z,42.60
2019-04-21T09:46:09.751Z,42.74
2019-04-21T09:48:49.086Z,41.63
2019-04-21T09:51:04.042Z,40.70
2019-04-21T09:53:35.043Z,40.95
2019-04-21T09:56:03.168Z,41.88
2019-04-21T09:58:34.652Z,41.84
2019-04-21T10:03:19.093Z,40.74
2019-04-21T10:05:45.235Z,40.50
2019-04-21T10:08:12.522Z,41.12
2019-04-21T10:10:39.901Z,40.67
2019-04-21T10:13:07.086Z,39.87
2019-04-21T10:15:33.356Z,40.29
2019-04-21T10:18:02.625Z,40.54
2019-04-21T10:20:28.922Z,40.16
2019-04-21T10:22:55.317Z,40.60
2019-04-21T10:25:22.770Z,40.98
2019-04-21T10:27:49.515Z,40.12
2019-04-21T10:30:16.340Z,40.75
2019-04-21T10:32:42.816Z,40.80
2019-04-21T10:35:10.781Z,40.98
2019-04-21T10:37:47.338Z,41.37
2019-04-21T10:40:07.419Z,39.45
2019-04-21T10:42:33.831Z,40.07
2019-04-21T10:45:01.086Z,39.70
2019-04-21T10:47:27.307Z,40.18
2019-04-21T10:49:54.820Z,40.02
2019-04-21T10:52:23.071Z,40.06
2019-04-21T10:55:12.758Z,40.50
2019-04-21T10:57:26.308Z,40.66
2019-04-21T10:59:55.525Z,39.47
2019-04-21T11:02:23.074Z,39.54
2019-04-21T11:04:49.308Z,39.51
2019-04-21T11:07:31.382Z,40.88
2019-04-21T11:09:54.067Z,40.56
2019-04-21T11:12:20.197Z,39.19
2019-04-21T11:14:47.218Z,39.37
2019-04-21T11:17:14.267Z,39.35
2019-04-21T11:19:41.107Z,39.60
2019-04-21T11:22:07.456Z,39.16
2019-04-21T11:24:33.477Z,40.09
2019-04-21T11:27:00.119Z,39.93
2019-04-21T11:29:28.616Z,39.86
2019-04-21T11:31:54.922Z,39.67
2019-04-21T11:34:21.145Z,39.58
2019-04-21T11:36:48.044Z,39.37
2019-04-21T11:39:35.556Z,38.84
2019-04-21T11:41:54.080Z,38.44
2019-04-21T11:44:24.264Z,37.08
2019-04-21T11:46:48.870Z,37.87
2019-04-21T11:49:15.838Z,36.70
2019-04-21T11:51:42.793Z,36.58
2019-04-21T11:54:09.165Z,36.82
2019-04-21T11:56:35.328Z,37.10
2019-04-21T11:59:01.740Z,37.46
2019-04-21T12:01:28.040Z,37.79
2019-04-21T12:03:55.614Z,37.78
2019-04-21T12:06:30.774Z,38.12
2019-04-21T12:08:52.949Z,37.81
2019-04-21T12:11:17.943Z,38.04
2019-04-21T12:13:44.056Z,38.25
2019-04-21T12:16:12.768Z,38.94
2019-04-21T12:18:40.693Z,39.11
2019-04-21T12:21:07.478Z,38.80
2019-04-21T12:23:34.390Z,38.34
2019-04-21T12:26:01.217Z,38.43
2019-04-21T12:28:30.236Z,39.48
2019-04-21T12:30:57.877Z,38.72
2019-04-21T12:33:26.115Z,39.19
2019-04-21T12:35:53.575Z,39.24
2019-04-21T12:38:30.199Z,38.90
2019-04-21T12:40:48.572Z,39.37
2019-04-21T12:43:14.843Z,37.23
2019-04-21T12:45:41.987Z,38.16
2019-04-21T12:48:08.445Z,36.25
2019-04-21T12:50:36.011Z,36.11
2019-04-21T12:53:03.297Z,35.35
2019-04-21T12:55:31.612Z,36.04
2019-04-21T12:57:57.638Z,35.64
2019-04-21T13:00:24.818Z,36.15
2019-04-21T13:02:51.979Z,36.50
2019-04-21T13:05:18.232Z,35.75
2019-04-21T13:07:45.601Z,35.77
2019-04-21T13:10:12.705Z,36.15
2019-04-21T13:12:38.884Z,35.21
2019-04-21T13:15:06.817Z,35.40
2019-04-21T13:17:33.192Z,35.12
2019-04-21T13:19:59.366Z,35.74
2019-04-21T13:22:25.967Z,35.54
2019-04-21T13:24:52.189Z,35.59
2019-04-21T13:27:18.352Z,34.49
2019-04-21T13:29:44.490Z,34.93
2019-04-21T13:32:11.198Z,34.65
2019-04-21T13:34:40.014Z,34.57
2019-04-21T13:37:07.544Z,34.64
2019-04-21T13:40:16.461Z,35.15
2019-04-21T13:42:28.130Z,35.05
2019-04-21T13:44:46.637Z,35.61
2019-04-21T13:47:12.899Z,35.57
2019-04-21T13:49:39.268Z,35.91
2019-04-21T13:52:06.657Z,35.90
2019-04-21T13:54:33.724Z,36.12
2019-04-21T13:57:00.663Z,36.55
2019-04-21T13:59:26.913Z,36.39
2019-04-21T14:01:53.988Z,37.05
2019-04-21T14:04:20.276Z,37.22
2019-04-21T14:06:47.907Z,36.44
2019-04-21T14:09:15.605Z,36.54
2019-04-21T14:11:43.308Z,36.86
2019-04-21T14:14:10.371Z,37.13
2019-04-21T14:16:36.584Z,36.96
2019-04-21T14:19:03.475Z,37.82
2019-04-21T14:21:29.651Z,37.73
2019-04-21T14:23:56.400Z,37.86
2019-04-21T14:26:24.475Z,38.46
2019-04-21T14:28:51.307Z,38.29
2019-04-21T14:31:17.609Z,37.95
2019-04-21T14:33:43.861Z,37.33
2019-04-21T14:36:10.708Z,37.58
2019-04-21T14:38:38.465Z,37.23
2019-04-21T14:41:06.077Z,37.55
2019-04-21T14:43:32.322Z,37.79
2019-04-21T14:46:00.983Z,37.98
2019-04-21T14:48:29.569Z,38.30
2019-04-21T14:51:06.805Z,38.16
2019-04-21T14:53:36.024Z,38.04
2019-04-21T14:56:03.722Z,38.31
2019-04-21T14:58:30.858Z,38.21
2019-04-21T15:01:04.033Z,37.84
2019-04-21T15:03:31.936Z,38.14
2019-04-21T15:05:58.422Z,38.12
2019-04-21T15:08:25.000Z,38.74
2019-04-21T15:10:52.653Z,38.79
2019-04-21T15:13:19.546Z,38.07
2019-04-21T15:15:45.896Z,37.69
2019-04-21T15:18:12.580Z,37.86
2019-04-21T15:20:38.813Z,37.48
2019-04-21T15:23:06.190Z,37.13
2019-04-21T15:25:32.582Z,37.33
2019-04-21T15:27:59.097Z,37.81
2019-04-21T15:30:26.775Z,38.43
2019-04-21T15:32:53.093Z,38.38
2019-04-21T15:35:19.606Z,38.25
2019-04-21T15:37:46.347Z,38.23
2019-04-21T15:40:21.744Z,37.65
2019-04-21T15:42:42.097Z,37.95
2019-04-21T15:45:08.977Z,38.45
2019-04-21T15:47:36.024Z,38.33
2019-04-21T15:50:10.183Z,37.95
2019-04-21T15:52:32.226Z,38.74
2019-04-21T15:55:03.330Z,38.77
2019-04-21T15:57:31.263Z,38.75
2019-04-21T16:00:00.400Z,38.61
2019-04-21T16:02:46.641Z,38.89
2019-04-21T16:05:15.018Z,39.16
2019-04-21T16:07:42.348Z,39.28
2019-04-21T16:10:11.570Z,39.56
2019-04-21T16:12:37.876Z,39.62
2019-04-21T16:15:08.455Z,39.51
2019-04-21T16:17:35.242Z,39.76
2019-04-21T16:20:02.117Z,39.52
2019-04-21T16:22:34.914Z,39.62
2019-04-21T16:25:01.189Z,39.59
2019-04-21T16:27:27.772Z,39.53
2019-04-21T16:29:54.095Z,39.91
2019-04-21T16:32:21.621Z,39.84
2019-04-21T16:34:54.265Z,40.05
2019-04-21T16:37:17.306Z,40.29
2019-04-21T16:39:45.222Z,40.26
2019-04-21T16:42:12.018Z,40.11
2019-04-21T16:44:38.879Z,40.30
2019-04-21T16:47:05.455Z,40.28
2019-04-21T16:49:31.861Z,40.64
2019-04-21T16:52:16.697Z,41.09
2019-04-21T16:54:47.988Z,41.52
2019-04-21T16:57:22.066Z,41.71
2019-04-21T16:59:50.666Z,41.86
2019-04-21T17:02:17.012Z,42.12
2019-04-21T17:04:44.356Z,42.31
2019-04-21T17:07:11.467Z,42.55
2019-04-21T17:09:38.911Z,42.40
2019-04-21T17:12:09.697Z,42.36
2019-04-21T17:14:51.254Z,42.70
2019-04-21T17:17:26.768Z,42.70
2019-04-21T17:19:37.930Z,42.56
2019-04-21T17:21:59.683Z,43.06
2019-04-21T17:24:26.510Z,43.51
2019-04-21T17:26:53.282Z,43.85
2019-04-21T17:29:20.916Z,43.96
2019-04-21T17:31:47.690Z,44.06
2019-04-21T17:34:19.467Z,44.10
2019-04-21T17:36:43.143Z,44.16
2019-04-21T17:39:10.982Z,44.36
2019-04-21T17:41:48.799Z,44.37
2019-04-21T17:44:08.962Z,44.74
2019-04-21T17:46:44.164Z,44.82
2019-04-21T17:49:03.331Z,44.81
2019-04-21T17:51:35.226Z,45.14
2019-04-21T17:54:08.232Z,45.36
2019-04-21T17:56:59.504Z,45.95
2019-04-21T17:59:36.286Z,46.32
2019-04-21T18:01:49.983Z,46.45
2019-04-21T18:04:15.347Z,46.68
2019-04-21T18:06:54.320Z,47.16
2019-04-21T18:09:32.766Z,47.67
2019-04-21T18:11:52.359Z,47.55
2019-04-21T18:14:01.757Z,47.91
2019-04-21T18:16:41.762Z,48.04
2019-04-21T18:19:05.066Z,48.14
2019-04-21T18:21:56.039Z,48.20
2019-04-21T18:24:22.594Z,48.24
2019-04-21T18:26:55.403Z,48.37
2019-04-21T18:29:17.829Z,48.55
2019-04-21T18:31:49.161Z,48.76
2019-04-21T18:34:25.668Z,49.34
2019-04-21T18:36:55.320Z,49.24
2019-04-21T18:39:38.147Z,49.56
2019-04-21T18:45:20.718Z,49.65
2019-04-21T18:47:35.201Z,49.84
2019-04-21T18:49:48.077Z,50.42
2019-04-21T18:52:24.554Z,51.27
2019-04-21T18:55:00.174Z,51.23
2019-04-21T18:57:22.845Z,51.19
2019-04-21T18:59:43.999Z,51.33
2019-04-21T19:02:11.224Z,51.49
2019-04-21T19:04:38.753Z,51.72
2019-04-21T19:07:17.308Z,51.98
2019-04-21T19:10:09.878Z,53.06
2019-04-21T19:12:20.851Z,53.08
2019-04-21T19:14:46.347Z,52.82
2019-04-21T19:17:56.753Z,52.52
2019-04-21T19:19:56.463Z,52.55
2019-04-21T19:22:09.135Z,52.66
2019-04-21T19:24:41.385Z,52.67
2019-04-21T19:27:12.703Z,52.69
2019-04-21T19:29:35.914Z,52.66
2019-04-21T19:32:10.478Z,52.84
2019-04-21T19:34:22.411Z,53.04
2019-04-21T19:36:51.954Z,53.24
2019-04-21T19:39:16.366Z,53.45
2019-04-21T19:41:50.739Z,53.58
2019-04-21T19:44:31.958Z,53.58
2019-04-21T19:46:55.954Z,53.76
2019-04-21T19:49:27.969Z,54.00
2019-04-21T19:51:43.781Z,54.10
2019-04-21T19:54:14.394Z,54.20
2019-04-21T19:56:30.279Z,54.17
2019-04-21T19:58:57.019Z,54.51
2019-04-21T20:04:34.404Z,54.25
2019-04-21T20:07:02.890Z,54.30
2019-04-21T20:09:40.744Z,54.47
2019-04-21T20:12:06.651Z,54.79
2019-04-21T20:14:49.293Z,54.68
2019-04-21T20:17:00.632Z,54.70
2019-04-21T20:19:16.194Z,54.88
2019-04-21T20:21:43.177Z,55.24
2019-04-21T20:24:14.060Z,55.43
2019-04-21T20:26:43.411Z,55.57
2019-04-21T20:29:20.817Z,55.94
2019-04-21T20:31:47.014Z,55.93
2019-04-21T20:34:18.014Z,55.77
2019-04-21T20:36:51.138Z,55.66
2019-04-21T20:39:05.809Z,56.29
2019-04-21T20:41:35.319Z,56.45
2019-04-21T20:44:11.925Z,56.40
2019-04-21T20:46:53.137Z,56.78
2019-04-21T20:49:04.094Z,56.87
2019-04-21T20:51:35.869Z,56.85
2019-04-21T20:53:59.055Z,57.20
2019-04-21T20:56:21.805Z,57.27
2019-04-21T20:58:55.835Z,57.55
2019-04-21T21:03:56.472Z,57.58
2019-04-21T21:06:21.838Z,57.71
2019-04-21T21:08:49.973Z,57.77
2019-04-21T21:11:20.897Z,58.04
2019-04-21T21:13:49.130Z,58.27
2019-04-21T21:21:11.100Z,58.16
2019-04-21T21:23:42.462Z,58.18
2019-04-21T21:26:18.846Z,58.39
2019-04-21T21:28:32.690Z,58.52
2019-04-21T21:31:09.669Z,58.73
2019-04-21T21:33:39.415Z,59.32
2019-04-21T21:36:06.571Z,59.09
2019-04-21T21:38:31.473Z,58.96
2019-04-21T21:40:53.050Z,59.17
2019-04-21T21:43:16.616Z,59.54
2019-04-21T21:45:42.559Z,59.73
2019-04-21T21:48:21.811Z,59.76
2019-04-21T21:50:45.574Z,59.80
2019-04-21T21:53:08.288Z,59.84
2019-04-21T21:55:32.300Z,60.10
2019-04-21T21:58:08.536Z,60.41
2019-04-21T22:00:41.880Z,60.35
2019-04-21T22:03:16.351Z,60.43
2019-04-21T22:05:43.373Z,60.51
2019-04-21T22:08:02.538Z,60.36
2019-04-21T22:10:29.476Z,60.41
2019-04-21T22:13:04.016Z,60.49
2019-04-21T22:15:27.851Z,60.66
2019-04-21T22:18:14.801Z,60.90
2019-04-21T22:20:37.361Z,60.92
2019-04-21T22:22:56.556Z,61.23
2019-04-21T22:25:24.361Z,61.82
2019-04-21T22:27:50.767Z,61.96
2019-04-21T22:30:24.735Z,61.73
2019-04-21T22:32:55.300Z,61.89
2019-04-21T22:35:23.530Z,62.00
2019-04-21T22:37:54.796Z,61.92
2019-04-21T22:40:20.520Z,62.02
2019-04-21T22:42:50.403Z,62.26
2019-04-21T22:45:07.337Z,62.73
2019-04-21T22:47:36.441Z,62.55
2019-04-21T22:50:02.633Z,62.29
2019-04-21T22:52:30.477Z,62.12
2019-04-21T22:55:00.827Z,62.16
2019-04-21T22:57:28.520Z,62.47
2019-04-21T22:59:59.914Z,62.54
2019-04-21T23:02:27.975Z,62.46
2019-04-21T23:04:54.655Z,62.49
2019-04-21T23:07:20.748Z,62.59
2019-04-21T23:09:45.630Z,62.71
2019-04-21T23:12:19.401Z,62.78
2019-04-21T23:14:47.417Z,62.91
2019-04-21T23:17:29.945Z,62.99
2019-04-21T23:20:00.035Z,63.09
2019-04-21T23:22:24.494Z,63.06
2019-04-21T23:24:53.103Z,63.16
2019-04-21T23:27:14.206Z,63.31
2019-04-21T23:29:52.817Z,63.38
2019-04-21T23:32:14.908Z,63.25
2019-04-21T23:34:30.814Z,63.17
2019-04-21T23:37:00.834Z,63.38
2019-04-21T23:39:23.383Z,63.74
2019-04-21T23:41:52.891Z,63.82
2019-04-21T23:44:18.986Z,63.81
2019-04-21T23:46:45.792Z,63.85
2019-04-21T23:49:23.173Z,63.96
2019-04-21T23:51:47.714Z,64.01
2019-04-21T23:54:09.141Z,64.14
2019-04-21T23:56:39.491Z,64.10
2019-04-21T23:59:07.465Z,64.15
